sensor_id;sensor_type;location;lat;lon;timestamp;P1;durP1;ratioP1;P2;durP2;ratioP2
33154;SDS011;19511;42.682;23.332;2022-08-19T00:01:18;10.95;;;5.47;;
33154;SDS011;19511;42.682;23.332;2022-08-19T00:03:43;11.88;;;5.63;;
33154;SDS011;19511;42.682;23.332;2022-08-19T00:06:09;13.45;;;5.70;;
33154;SDS011;19511;42.682;23.332;2022-08-19T00:08:35;10.23;;;5.45;;
33154;SDS011;19511;42.682;23.332;2022-08-19T00:11:00;10.82;;;6.03;;
33154;SDS011;19511;42.682;23.332;2022-08-19T00:13:26;13.10;;;5.50;;
33154;SDS011;19511;42.682;23.332;2022-08-19T00:15:53;12.10;;;5.80;;
33154;SDS011;19511;42.682;23.332;2022-08-19T00:18:20;11.27;;;5.65;;
33154;SDS011;19511;42.682;23.332;2022-08-19T00:20:45;8.25;;;5.63;;
33154;SDS011;19511;42.682;23.332;2022-08-19T00:23:11;11.30;;;6.07;;
33154;SDS011;19511;42.682;23.332;2022-08-19T00:25:36;10.88;;;5.85;;
33154;SDS011;19511;42.682;23.332;2022-08-19T00:28:02;13.75;;;5.53;;
33154;SDS011;19511;42.682;23.332;2022-08-19T00:30:29;9.95;;;5.97;;
33154;SDS011;19511;42.682;23.332;2022-08-19T00:32:55;11.23;;;5.68;;
33154;SDS011;19511;42.682;23.332;2022-08-19T00:35:21;10.93;;;5.63;;
33154;SDS011;19511;42.682;23.332;2022-08-19T00:37:49;9.70;;;5.35;;
33154;SDS011;19511;42.682;23.332;2022-08-19T00:40:15;9.50;;;6.03;;
33154;SDS011;19511;42.682;23.332;2022-08-19T00:42:43;10.50;;;5.32;;
33154;SDS011;19511;42.682;23.332;2022-08-19T00:45:24;16.40;;;5.80;;
33154;SDS011;19511;42.682;23.332;2022-08-19T00:47:51;9.35;;;5.80;;
33154;SDS011;19511;42.682;23.332;2022-08-19T00:50:17;8.88;;;5.32;;
33154;SDS011;19511;42.682;23.332;2022-08-19T00:52:45;10.85;;;5.28;;
33154;SDS011;19511;42.682;23.332;2022-08-19T00:55:18;12.18;;;6.35;;
33154;SDS011;19511;42.682;23.332;2022-08-19T00:57:51;8.80;;;5.75;;
33154;SDS011;19511;42.682;23.332;2022-08-19T01:00:21;10.60;;;6.78;;
33154;SDS011;19511;42.682;23.332;2022-08-19T01:02:48;9.90;;;5.57;;
33154;SDS011;19511;42.682;23.332;2022-08-19T01:05:15;11.43;;;5.70;;
33154;SDS011;19511;42.682;23.332;2022-08-19T01:07:46;15.13;;;5.85;;
33154;SDS011;19511;42.682;23.332;2022-08-19T01:10:15;13.60;;;7.00;;
33154;SDS011;19511;42.682;23.332;2022-08-19T01:12:47;10.40;;;6.65;;
33154;SDS011;19511;42.682;23.332;2022-08-19T01:15:16;10.98;;;5.47;;
33154;SDS011;19511;42.682;23.332;2022-08-19T01:17:45;11.70;;;5.63;;
33154;SDS011;19511;42.682;23.332;2022-08-19T01:20:16;15.73;;;6.65;;
33154;SDS011;19511;42.682;23.332;2022-08-19T01:25:10;9.05;;;6.13;;
33154;SDS011;19511;42.682;23.332;2022-08-19T01:27:40;13.57;;;6.53;;
33154;SDS011;19511;42.682;23.332;2022-08-19T01:30:08;11.88;;;6.95;;
33154;SDS011;19511;42.682;23.332;2022-08-19T01:32:37;15.70;;;6.57;;
33154;SDS011;19511;42.682;23.332;2022-08-19T01:35:03;11.55;;;6.60;;
33154;SDS011;19511;42.682;23.332;2022-08-19T01:37:29;16.55;;;6.75;;
33154;SDS011;19511;42.682;23.332;2022-08-19T01:40:06;10.88;;;6.13;;
33154;SDS011;19511;42.682;23.332;2022-08-19T01:42:33;20.08;;;6.72;;
33154;SDS011;19511;42.682;23.332;2022-08-19T01:45:00;12.75;;;6.53;;
33154;SDS011;19511;42.682;23.332;2022-08-19T01:47:25;9.90;;;6.22;;
33154;SDS011;19511;42.682;23.332;2022-08-19T01:49:51;14.98;;;6.75;;
33154;SDS011;19511;42.682;23.332;2022-08-19T01:52:16;9.38;;;6.45;;
33154;SDS011;19511;42.682;23.332;2022-08-19T01:54:42;10.88;;;6.22;;
33154;SDS011;19511;42.682;23.332;2022-08-19T01:57:08;10.23;;;6.40;;
33154;SDS011;19511;42.682;23.332;2022-08-19T01:59:37;10.25;;;6.60;;
33154;SDS011;19511;42.682;23.332;2022-08-19T02:02:06;14.77;;;6.40;;
33154;SDS011;19511;42.682;23.332;2022-08-19T02:04:35;13.05;;;6.63;;
33154;SDS011;19511;42.682;23.332;2022-08-19T02:07:03;9.07;;;6.18;;
33154;SDS011;19511;42.682;23.332;2022-08-19T02:09:28;12.88;;;6.80;;
33154;SDS011;19511;42.682;23.332;2022-08-19T02:11:56;9.55;;;6.35;;
33154;SDS011;19511;42.682;23.332;2022-08-19T02:14:21;10.40;;;7.05;;
33154;SDS011;19511;42.682;23.332;2022-08-19T02:16:47;14.95;;;6.97;;
33154;SDS011;19511;42.682;23.332;2022-08-19T02:19:12;15.50;;;6.78;;
33154;SDS011;19511;42.682;23.332;2022-08-19T02:21:38;9.85;;;6.30;;
33154;SDS011;19511;42.682;23.332;2022-08-19T02:24:04;12.95;;;7.78;;
33154;SDS011;19511;42.682;23.332;2022-08-19T02:26:30;9.57;;;6.25;;
33154;SDS011;19511;42.682;23.332;2022-08-19T02:28:57;11.70;;;7.38;;
33154;SDS011;19511;42.682;23.332;2022-08-19T02:31:23;14.07;;;7.50;;
33154;SDS011;19511;42.682;23.332;2022-08-19T02:33:50;14.55;;;7.05;;
33154;SDS011;19511;42.682;23.332;2022-08-19T02:36:17;11.07;;;6.95;;
33154;SDS011;19511;42.682;23.332;2022-08-19T02:38:42;15.40;;;6.90;;
33154;SDS011;19511;42.682;23.332;2022-08-19T02:41:19;12.20;;;6.85;;
33154;SDS011;19511;42.682;23.332;2022-08-19T02:43:47;17.23;;;7.28;;
33154;SDS011;19511;42.682;23.332;2022-08-19T02:48:49;14.35;;;6.85;;
33154;SDS011;19511;42.682;23.332;2022-08-19T02:51:24;10.35;;;7.00;;
33154;SDS011;19511;42.682;23.332;2022-08-19T02:53:52;9.23;;;6.30;;
33154;SDS011;19511;42.682;23.332;2022-08-19T02:56:19;11.25;;;6.72;;
33154;SDS011;19511;42.682;23.332;2022-08-19T02:58:45;12.77;;;7.07;;
33154;SDS011;19511;42.682;23.332;2022-08-19T03:01:18;11.85;;;6.70;;
33154;SDS011;19511;42.682;23.332;2022-08-19T03:04:03;12.93;;;6.90;;
33154;SDS011;19511;42.682;23.332;2022-08-19T03:06:37;14.93;;;7.15;;
33154;SDS011;19511;42.682;23.332;2022-08-19T03:09:09;10.95;;;6.85;;
33154;SDS011;19511;42.682;23.332;2022-08-19T03:11:35;10.40;;;7.22;;
33154;SDS011;19511;42.682;23.332;2022-08-19T03:14:03;13.75;;;6.57;;
33154;SDS011;19511;42.682;23.332;2022-08-19T03:16:30;12.88;;;6.90;;
33154;SDS011;19511;42.682;23.332;2022-08-19T03:18:57;14.35;;;7.57;;
33154;SDS011;19511;42.682;23.332;2022-08-19T03:21:26;11.48;;;6.97;;
33154;SDS011;19511;42.682;23.332;2022-08-19T03:23:54;12.00;;;7.18;;
33154;SDS011;19511;42.682;23.332;2022-08-19T03:26:21;13.15;;;7.25;;
33154;SDS011;19511;42.682;23.332;2022-08-19T03:28:47;10.35;;;7.00;;
33154;SDS011;19511;42.682;23.332;2022-08-19T03:31:15;11.70;;;7.80;;
33154;SDS011;19511;42.682;23.332;2022-08-19T03:33:42;13.35;;;7.55;;
33154;SDS011;19511;42.682;23.332;2022-08-19T03:38:35;11.98;;;6.88;;
33154;SDS011;19511;42.682;23.332;2022-08-19T03:41:02;18.20;;;7.65;;
33154;SDS011;19511;42.682;23.332;2022-08-19T03:43:31;16.52;;;8.10;;
33154;SDS011;19511;42.682;23.332;2022-08-19T03:46:05;12.18;;;7.13;;
33154;SDS011;19511;42.682;23.332;2022-08-19T03:48:35;16.27;;;10.23;;
33154;SDS011;19511;42.682;23.332;2022-08-19T03:51:05;11.77;;;7.53;;
33154;SDS011;19511;42.682;23.332;2022-08-19T03:53:32;13.95;;;7.88;;
33154;SDS011;19511;42.682;23.332;2022-08-19T03:55:59;14.57;;;8.38;;
33154;SDS011;19511;42.682;23.332;2022-08-19T03:58:26;13.80;;;7.50;;
33154;SDS011;19511;42.682;23.332;2022-08-19T04:00:54;15.95;;;7.88;;
33154;SDS011;19511;42.682;23.332;2022-08-19T04:03:21;13.40;;;8.32;;
33154;SDS011;19511;42.682;23.332;2022-08-19T04:05:48;17.25;;;7.50;;
33154;SDS011;19511;42.682;23.332;2022-08-19T04:08:14;11.13;;;8.02;;
33154;SDS011;19511;42.682;23.332;2022-08-19T04:10:45;14.10;;;8.50;;
33154;SDS011;19511;42.682;23.332;2022-08-19T04:13:12;13.93;;;7.63;;
33154;SDS011;19511;42.682;23.332;2022-08-19T04:15:39;13.00;;;7.68;;
33154;SDS011;19511;42.682;23.332;2022-08-19T04:18:08;12.35;;;7.25;;
33154;SDS011;19511;42.682;23.332;2022-08-19T04:20:39;14.23;;;7.97;;
33154;SDS011;19511;42.682;23.332;2022-08-19T04:23:06;13.05;;;7.78;;
33154;SDS011;19511;42.682;23.332;2022-08-19T04:25:38;12.48;;;7.78;;
33154;SDS011;19511;42.682;23.332;2022-08-19T04:28:05;11.75;;;7.78;;
33154;SDS011;19511;42.682;23.332;2022-08-19T04:30:37;11.50;;;7.25;;
33154;SDS011;19511;42.682;23.332;2022-08-19T04:33:06;14.55;;;7.32;;
33154;SDS011;19511;42.682;23.332;2022-08-19T04:35:36;11.05;;;7.15;;
33154;SDS011;19511;42.682;23.332;2022-08-19T04:38:03;17.48;;;7.63;;
33154;SDS011;19511;42.682;23.332;2022-08-19T04:40:28;15.18;;;7.45;;
33154;SDS011;19511;42.682;23.332;2022-08-19T04:43:12;13.82;;;8.45;;
33154;SDS011;19511;42.682;23.332;2022-08-19T04:45:40;12.50;;;7.38;;
33154;SDS011;19511;42.682;23.332;2022-08-19T04:48:09;15.90;;;8.38;;
33154;SDS011;19511;42.682;23.332;2022-08-19T04:50:35;14.25;;;7.78;;
33154;SDS011;19511;42.682;23.332;2022-08-19T04:53:01;17.08;;;8.65;;
33154;SDS011;19511;42.682;23.332;2022-08-19T04:55:26;14.55;;;7.68;;
33154;SDS011;19511;42.682;23.332;2022-08-19T04:57:52;17.17;;;7.85;;
33154;SDS011;19511;42.682;23.332;2022-08-19T05:00:18;16.83;;;7.68;;
33154;SDS011;19511;42.682;23.332;2022-08-19T05:02:44;19.73;;;9.10;;
33154;SDS011;19511;42.682;23.332;2022-08-19T05:05:09;15.35;;;9.50;;
33154;SDS011;19511;42.682;23.332;2022-08-19T05:07:35;19.85;;;9.48;;
33154;SDS011;19511;42.682;23.332;2022-08-19T05:10:02;17.05;;;8.40;;
33154;SDS011;19511;42.682;23.332;2022-08-19T05:12:30;18.27;;;8.43;;
33154;SDS011;19511;42.682;23.332;2022-08-19T05:14:56;18.45;;;8.80;;
33154;SDS011;19511;42.682;23.332;2022-08-19T05:17:22;18.05;;;9.02;;
33154;SDS011;19511;42.682;23.332;2022-08-19T05:19:47;16.40;;;8.07;;
33154;SDS011;19511;42.682;23.332;2022-08-19T05:22:31;13.75;;;8.75;;
33154;SDS011;19511;42.682;23.332;2022-08-19T05:25:00;12.65;;;8.73;;
33154;SDS011;19511;42.682;23.332;2022-08-19T05:27:29;16.10;;;8.80;;
33154;SDS011;19511;42.682;23.332;2022-08-19T05:29:54;18.15;;;8.32;;
33154;SDS011;19511;42.682;23.332;2022-08-19T05:32:20;16.80;;;7.85;;
33154;SDS011;19511;42.682;23.332;2022-08-19T05:34:46;13.38;;;8.25;;
33154;SDS011;19511;42.682;23.332;2022-08-19T05:37:12;20.00;;;7.65;;
33154;SDS011;19511;42.682;23.332;2022-08-19T05:39:37;20.00;;;8.45;;
33154;SDS011;19511;42.682;23.332;2022-08-19T05:42:04;17.00;;;8.05;;
33154;SDS011;19511;42.682;23.332;2022-08-19T05:44:32;16.50;;;8.23;;
33154;SDS011;19511;42.682;23.332;2022-08-19T05:47:02;16.38;;;7.25;;
33154;SDS011;19511;42.682;23.332;2022-08-19T05:49:30;15.88;;;8.45;;
33154;SDS011;19511;42.682;23.332;2022-08-19T05:51:57;14.75;;;8.07;;
33154;SDS011;19511;42.682;23.332;2022-08-19T05:54:24;20.02;;;8.50;;
33154;SDS011;19511;42.682;23.332;2022-08-19T05:56:51;18.70;;;7.68;;
33154;SDS011;19511;42.682;23.332;2022-08-19T05:59:18;18.65;;;8.18;;
33154;SDS011;19511;42.682;23.332;2022-08-19T06:01:46;15.48;;;8.52;;
33154;SDS011;19511;42.682;23.332;2022-08-19T06:04:15;14.38;;;7.85;;
33154;SDS011;19511;42.682;23.332;2022-08-19T06:06:43;20.15;;;9.00;;
33154;SDS011;19511;42.682;23.332;2022-08-19T06:09:09;16.40;;;9.07;;
33154;SDS011;19511;42.682;23.332;2022-08-19T06:11:39;13.60;;;7.90;;
33154;SDS011;19511;42.682;23.332;2022-08-19T06:14:12;18.92;;;7.75;;
33154;SDS011;19511;42.682;23.332;2022-08-19T06:16:40;14.55;;;7.20;;
33154;SDS011;19511;42.682;23.332;2022-08-19T06:19:09;12.85;;;6.80;;
33154;SDS011;19511;42.682;23.332;2022-08-19T06:21:37;12.80;;;7.03;;
33154;SDS011;19511;42.682;23.332;2022-08-19T06:24:06;13.93;;;7.55;;
33154;SDS011;19511;42.682;23.332;2022-08-19T06:26:33;11.43;;;7.25;;
33154;SDS011;19511;42.682;23.332;2022-08-19T06:29:00;12.80;;;7.22;;
33154;SDS011;19511;42.682;23.332;2022-08-19T06:31:26;13.48;;;7.13;;
33154;SDS011;19511;42.682;23.332;2022-08-19T06:33:53;14.57;;;5.97;;
33154;SDS011;19511;42.682;23.332;2022-08-19T06:36:19;11.23;;;6.50;;
33154;SDS011;19511;42.682;23.332;2022-08-19T06:38:47;12.40;;;6.18;;
33154;SDS011;19511;42.682;23.332;2022-08-19T06:41:12;12.73;;;7.65;;
33154;SDS011;19511;42.682;23.332;2022-08-19T06:43:38;14.98;;;6.35;;
33154;SDS011;19511;42.682;23.332;2022-08-19T06:46:09;14.35;;;7.30;;
33154;SDS011;19511;42.682;23.332;2022-08-19T06:51:04;11.77;;;7.50;;
33154;SDS011;19511;42.682;23.332;2022-08-19T06:53:31;11.50;;;6.57;;
33154;SDS011;19511;42.682;23.332;2022-08-19T06:55:57;10.90;;;6.97;;
33154;SDS011;19511;42.682;23.332;2022-08-19T06:58:27;14.95;;;7.60;;
33154;SDS011;19511;42.682;23.332;2022-08-19T07:00:57;15.73;;;7.05;;
33154;SDS011;19511;42.682;23.332;2022-08-19T07:03:27;19.80;;;7.18;;
33154;SDS011;19511;42.682;23.332;2022-08-19T07:05:55;13.60;;;7.85;;
33154;SDS011;19511;42.682;23.332;2022-08-19T07:08:21;11.43;;;7.28;;
33154;SDS011;19511;42.682;23.332;2022-08-19T07:10:46;10.70;;;6.65;;
33154;SDS011;19511;42.682;23.332;2022-08-19T07:13:13;12.02;;;7.00;;
33154;SDS011;19511;42.682;23.332;2022-08-19T07:15:38;17.75;;;7.40;;
33154;SDS011;19511;42.682;23.332;2022-08-19T07:18:04;17.45;;;6.72;;
33154;SDS011;19511;42.682;23.332;2022-08-19T07:20:29;12.15;;;5.68;;
33154;SDS011;19511;42.682;23.332;2022-08-19T07:22:55;10.63;;;5.65;;
33154;SDS011;19511;42.682;23.332;2022-08-19T07:25:20;11.63;;;6.85;;
33154;SDS011;19511;42.682;23.332;2022-08-19T07:27:48;12.32;;;6.30;;
33154;SDS011;19511;42.682;23.332;2022-08-19T07:30:14;9.07;;;5.50;;
33154;SDS011;19511;42.682;23.332;2022-08-19T07:32:40;8.95;;;6.05;;
33154;SDS011;19511;42.682;23.332;2022-08-19T07:35:06;9.02;;;5.85;;
33154;SDS011;19511;42.682;23.332;2022-08-19T07:37:34;16.70;;;5.60;;
33154;SDS011;19511;42.682;23.332;2022-08-19T07:40:02;14.30;;;6.60;;
33154;SDS011;19511;42.682;23.332;2022-08-19T07:42:30;12.65;;;6.43;;
33154;SDS011;19511;42.682;23.332;2022-08-19T07:44:56;14.52;;;5.10;;
33154;SDS011;19511;42.682;23.332;2022-08-19T07:47:21;12.50;;;6.03;;
33154;SDS011;19511;42.682;23.332;2022-08-19T07:49:47;9.68;;;5.10;;
33154;SDS011;19511;42.682;23.332;2022-08-19T07:52:13;10.80;;;5.15;;
33154;SDS011;19511;42.682;23.332;2022-08-19T07:54:39;10.02;;;5.85;;
33154;SDS011;19511;42.682;23.332;2022-08-19T07:57:06;7.75;;;4.68;;
33154;SDS011;19511;42.682;23.332;2022-08-19T07:59:32;13.45;;;6.10;;
33154;SDS011;19511;42.682;23.332;2022-08-19T08:01:58;13.52;;;5.60;;
33154;SDS011;19511;42.682;23.332;2022-08-19T08:04:25;10.70;;;5.15;;
33154;SDS011;19511;42.682;23.332;2022-08-19T08:07:10;9.82;;;4.93;;
33154;SDS011;19511;42.682;23.332;2022-08-19T08:09:54;13.30;;;5.28;;
33154;SDS011;19511;42.682;23.332;2022-08-19T08:12:25;9.23;;;5.38;;
33154;SDS011;19511;42.682;23.332;2022-08-19T08:14:57;10.35;;;5.63;;
33154;SDS011;19511;42.682;23.332;2022-08-19T08:17:28;12.75;;;5.07;;
33154;SDS011;19511;42.682;23.332;2022-08-19T08:19:55;16.95;;;5.38;;
33154;SDS011;19511;42.682;23.332;2022-08-19T08:22:22;11.57;;;4.80;;
33154;SDS011;19511;42.682;23.332;2022-08-19T08:25:09;9.00;;;4.00;;
33154;SDS011;19511;42.682;23.332;2022-08-19T08:27:43;14.35;;;6.20;;
33154;SDS011;19511;42.682;23.332;2022-08-19T08:30:11;11.00;;;4.72;;
33154;SDS011;19511;42.682;23.332;2022-08-19T08:32:44;8.13;;;5.22;;
33154;SDS011;19511;42.682;23.332;2022-08-19T08:35:11;11.98;;;5.00;;
33154;SDS011;19511;42.682;23.332;2022-08-19T08:37:38;7.85;;;4.47;;
33154;SDS011;19511;42.682;23.332;2022-08-19T08:40:05;9.10;;;4.32;;
33154;SDS011;19511;42.682;23.332;2022-08-19T08:42:45;7.70;;;4.70;;
33154;SDS011;19511;42.682;23.332;2022-08-19T08:45:19;7.15;;;4.57;;
33154;SDS011;19511;42.682;23.332;2022-08-19T08:47:47;10.80;;;4.35;;
33154;SDS011;19511;42.682;23.332;2022-08-19T08:50:25;8.88;;;4.35;;
33154;SDS011;19511;42.682;23.332;2022-08-19T08:52:57;13.23;;;4.65;;
33154;SDS011;19511;42.682;23.332;2022-08-19T08:55:25;8.52;;;4.70;;
33154;SDS011;19511;42.682;23.332;2022-08-19T08:57:59;9.43;;;3.97;;
33154;SDS011;19511;42.682;23.332;2022-08-19T09:00:29;10.73;;;4.57;;
33154;SDS011;19511;42.682;23.332;2022-08-19T09:02:57;8.45;;;4.43;;
33154;SDS011;19511;42.682;23.332;2022-08-19T09:05:27;8.45;;;4.68;;
33154;SDS011;19511;42.682;23.332;2022-08-19T09:08:04;9.88;;;4.65;;
33154;SDS011;19511;42.682;23.332;2022-08-19T09:10:53;8.65;;;4.68;;
33154;SDS011;19511;42.682;23.332;2022-08-19T09:16:06;8.10;;;4.38;;
33154;SDS011;19511;42.682;23.332;2022-08-19T09:21:18;9.38;;;4.05;;
33154;SDS011;19511;42.682;23.332;2022-08-19T09:23:45;8.57;;;4.03;;
33154;SDS011;19511;42.682;23.332;2022-08-19T09:26:12;8.40;;;3.70;;
33154;SDS011;19511;42.682;23.332;2022-08-19T09:28:41;9.68;;;3.80;;
33154;SDS011;19511;42.682;23.332;2022-08-19T09:31:12;5.93;;;3.67;;
33154;SDS011;19511;42.682;23.332;2022-08-19T09:33:39;6.53;;;3.35;;
33154;SDS011;19511;42.682;23.332;2022-08-19T09:36:09;6.13;;;2.70;;
33154;SDS011;19511;42.682;23.332;2022-08-19T09:38:37;8.10;;;3.85;;
33154;SDS011;19511;42.682;23.332;2022-08-19T09:41:06;4.78;;;2.78;;
33154;SDS011;19511;42.682;23.332;2022-08-19T09:43:33;4.38;;;2.97;;
33154;SDS011;19511;42.682;23.332;2022-08-19T09:46:02;4.88;;;2.67;;
33154;SDS011;19511;42.682;23.332;2022-08-19T09:48:30;6.03;;;3.10;;
33154;SDS011;19511;42.682;23.332;2022-08-19T09:51:02;5.57;;;3.00;;
33154;SDS011;19511;42.682;23.332;2022-08-19T09:53:28;6.90;;;3.15;;
33154;SDS011;19511;42.682;23.332;2022-08-19T09:55:57;6.22;;;2.88;;
33154;SDS011;19511;42.682;23.332;2022-08-19T09:58:22;4.22;;;2.95;;
33154;SDS011;19511;42.682;23.332;2022-08-19T10:00:52;4.45;;;2.65;;
33154;SDS011;19511;42.682;23.332;2022-08-19T10:03:21;3.35;;;2.60;;
33154;SDS011;19511;42.682;23.332;2022-08-19T10:05:48;5.63;;;3.20;;
33154;SDS011;19511;42.682;23.332;2022-08-19T10:08:14;3.38;;;2.78;;
33154;SDS011;19511;42.682;23.332;2022-08-19T10:10:45;5.57;;;2.85;;
33154;SDS011;19511;42.682;23.332;2022-08-19T10:13:13;6.95;;;2.88;;
33154;SDS011;19511;42.682;23.332;2022-08-19T10:15:41;5.18;;;3.10;;
33154;SDS011;19511;42.682;23.332;2022-08-19T10:18:07;9.43;;;4.50;;
33154;SDS011;19511;42.682;23.332;2022-08-19T10:20:33;5.65;;;2.97;;
33154;SDS011;19511;42.682;23.332;2022-08-19T10:23:00;7.60;;;3.28;;
33154;SDS011;19511;42.682;23.332;2022-08-19T10:25:26;6.82;;;3.55;;
33154;SDS011;19511;42.682;23.332;2022-08-19T10:27:52;10.32;;;2.92;;
33154;SDS011;19511;42.682;23.332;2022-08-19T10:30:18;4.50;;;3.03;;
33154;SDS011;19511;42.682;23.332;2022-08-19T10:32:44;6.15;;;3.00;;
33154;SDS011;19511;42.682;23.332;2022-08-19T10:35:10;4.93;;;3.10;;
33154;SDS011;19511;42.682;23.332;2022-08-19T10:37:37;7.70;;;2.90;;
33154;SDS011;19511;42.682;23.332;2022-08-19T10:40:04;4.30;;;3.15;;
33154;SDS011;19511;42.682;23.332;2022-08-19T10:42:31;7.43;;;3.30;;
33154;SDS011;19511;42.682;23.332;2022-08-19T10:44:57;6.82;;;3.85;;
33154;SDS011;19511;42.682;23.332;2022-08-19T10:47:23;7.15;;;3.20;;
33154;SDS011;19511;42.682;23.332;2022-08-19T10:49:48;6.93;;;3.47;;
33154;SDS011;19511;42.682;23.332;2022-08-19T10:52:32;4.45;;;3.28;;
33154;SDS011;19511;42.682;23.332;2022-08-19T10:54:59;6.93;;;3.70;;
33154;SDS011;19511;42.682;23.332;2022-08-19T10:57:44;7.13;;;2.58;;
33154;SDS011;19511;42.682;23.332;2022-08-19T11:00:10;4.45;;;3.35;;
33154;SDS011;19511;42.682;23.332;2022-08-19T11:02:36;7.03;;;3.60;;
33154;SDS011;19511;42.682;23.332;2022-08-19T11:05:02;4.68;;;3.10;;
33154;SDS011;19511;42.682;23.332;2022-08-19T11:07:28;7.75;;;3.10;;
33154;SDS011;19511;42.682;23.332;2022-08-19T11:09:53;3.70;;;2.85;;
33154;SDS011;19511;42.682;23.332;2022-08-19T11:12:18;7.72;;;3.20;;
33154;SDS011;19511;42.682;23.332;2022-08-19T11:14:44;8.38;;;3.83;;
33154;SDS011;19511;42.682;23.332;2022-08-19T11:17:10;5.82;;;3.20;;
33154;SDS011;19511;42.682;23.332;2022-08-19T11:19:38;4.35;;;2.85;;
33154;SDS011;19511;42.682;23.332;2022-08-19T11:22:07;6.22;;;3.55;;
33154;SDS011;19511;42.682;23.332;2022-08-19T11:24:35;7.45;;;3.35;;
33154;SDS011;19511;42.682;23.332;2022-08-19T11:27:05;8.93;;;4.40;;
33154;SDS011;19511;42.682;23.332;2022-08-19T11:29:34;6.05;;;4.00;;
33154;SDS011;19511;42.682;23.332;2022-08-19T11:32:05;8.80;;;3.45;;
33154;SDS011;19511;42.682;23.332;2022-08-19T11:34:33;5.15;;;3.40;;
33154;SDS011;19511;42.682;23.332;2022-08-19T11:37:00;4.75;;;3.60;;
33154;SDS011;19511;42.682;23.332;2022-08-19T11:39:28;3.67;;;3.22;;
33154;SDS011;19511;42.682;23.332;2022-08-19T11:41:57;5.40;;;3.47;;
33154;SDS011;19511;42.682;23.332;2022-08-19T11:44:23;4.20;;;3.28;;
33154;SDS011;19511;42.682;23.332;2022-08-19T11:46:50;5.32;;;3.20;;
33154;SDS011;19511;42.682;23.332;2022-08-19T11:49:18;5.60;;;3.80;;
33154;SDS011;19511;42.682;23.332;2022-08-19T11:51:45;7.25;;;3.17;;
33154;SDS011;19511;42.682;23.332;2022-08-19T11:54:11;6.38;;;3.47;;
33154;SDS011;19511;42.682;23.332;2022-08-19T11:56:38;5.53;;;4.03;;
33154;SDS011;19511;42.682;23.332;2022-08-19T11:59:04;5.90;;;3.67;;
33154;SDS011;19511;42.682;23.332;2022-08-19T12:01:30;5.22;;;3.38;;
33154;SDS011;19511;42.682;23.332;2022-08-19T12:03:56;5.75;;;3.85;;
33154;SDS011;19511;42.682;23.332;2022-08-19T12:06:27;5.95;;;3.72;;
33154;SDS011;19511;42.682;23.332;2022-08-19T12:08:57;7.88;;;4.28;;
33154;SDS011;19511;42.682;23.332;2022-08-19T12:11:25;6.07;;;3.17;;
33154;SDS011;19511;42.682;23.332;2022-08-19T12:13:54;5.50;;;3.03;;
33154;SDS011;19511;42.682;23.332;2022-08-19T12:16:20;7.68;;;3.30;;
33154;SDS011;19511;42.682;23.332;2022-08-19T12:18:50;6.40;;;3.58;;
33154;SDS011;19511;42.682;23.332;2022-08-19T12:21:17;10.32;;;3.33;;
33154;SDS011;19511;42.682;23.332;2022-08-19T12:26:24;9.93;;;4.05;;
33154;SDS011;19511;42.682;23.332;2022-08-19T12:28:51;7.68;;;3.80;;
33154;SDS011;19511;42.682;23.332;2022-08-19T12:31:17;7.47;;;4.15;;
33154;SDS011;19511;42.682;23.332;2022-08-19T12:33:44;5.50;;;3.10;;
33154;SDS011;19511;42.682;23.332;2022-08-19T12:36:10;6.65;;;3.53;;
33154;SDS011;19511;42.682;23.332;2022-08-19T12:38:38;6.13;;;3.35;;
33154;SDS011;19511;42.682;23.332;2022-08-19T12:41:05;8.40;;;3.85;;
33154;SDS011;19511;42.682;23.332;2022-08-19T12:43:35;6.15;;;3.50;;
33154;SDS011;19511;42.682;23.332;2022-08-19T12:46:02;5.63;;;3.53;;
33154;SDS011;19511;42.682;23.332;2022-08-19T12:48:29;5.13;;;3.55;;
33154;SDS011;19511;42.682;23.332;2022-08-19T12:50:55;9.32;;;3.95;;
33154;SDS011;19511;42.682;23.332;2022-08-19T12:53:20;4.72;;;3.05;;
33154;SDS011;19511;42.682;23.332;2022-08-19T12:55:46;6.72;;;3.70;;
33154;SDS011;19511;42.682;23.332;2022-08-19T12:58:11;9.60;;;2.92;;
33154;SDS011;19511;42.682;23.332;2022-08-19T13:00:37;10.88;;;4.32;;
33154;SDS011;19511;42.682;23.332;2022-08-19T13:03:03;8.63;;;3.75;;
33154;SDS011;19511;42.682;23.332;2022-08-19T13:05:30;5.65;;;3.40;;
33154;SDS011;19511;42.682;23.332;2022-08-19T13:07:58;10.90;;;6.13;;
33154;SDS011;19511;42.682;23.332;2022-08-19T13:10:29;5.13;;;3.40;;
33154;SDS011;19511;42.682;23.332;2022-08-19T13:13:00;10.40;;;3.55;;
33154;SDS011;19511;42.682;23.332;2022-08-19T13:15:27;9.82;;;3.30;;
33154;SDS011;19511;42.682;23.332;2022-08-19T13:17:56;4.53;;;3.33;;
33154;SDS011;19511;42.682;23.332;2022-08-19T13:20:22;9.93;;;3.45;;
33154;SDS011;19511;42.682;23.332;2022-08-19T13:22:48;6.00;;;3.47;;
33154;SDS011;19511;42.682;23.332;2022-08-19T13:25:14;5.78;;;3.65;;
33154;SDS011;19511;42.682;23.332;2022-08-19T13:27:42;6.63;;;3.10;;
33154;SDS011;19511;42.682;23.332;2022-08-19T13:30:09;11.75;;;4.55;;
33154;SDS011;19511;42.682;23.332;2022-08-19T13:32:54;8.23;;;3.97;;
33154;SDS011;19511;42.682;23.332;2022-08-19T13:38:08;6.30;;;3.22;;
33154;SDS011;19511;42.682;23.332;2022-08-19T13:40:35;4.88;;;2.90;;
33154;SDS011;19511;42.682;23.332;2022-08-19T13:43:02;4.47;;;3.60;;
33154;SDS011;19511;42.682;23.332;2022-08-19T13:45:30;6.22;;;3.25;;
33154;SDS011;19511;42.682;23.332;2022-08-19T13:48:00;5.95;;;3.40;;
33154;SDS011;19511;42.682;23.332;2022-08-19T13:50:32;9.40;;;3.40;;
33154;SDS011;19511;42.682;23.332;2022-08-19T13:52:58;8.05;;;3.80;;
33154;SDS011;19511;42.682;23.332;2022-08-19T13:55:25;3.78;;;3.25;;
33154;SDS011;19511;42.682;23.332;2022-08-19T13:57:55;4.18;;;3.33;;
33154;SDS011;19511;42.682;23.332;2022-08-19T14:00:22;6.32;;;3.60;;
33154;SDS011;19511;42.682;23.332;2022-08-19T14:02:51;5.20;;;3.35;;
33154;SDS011;19511;42.682;23.332;2022-08-19T14:05:18;14.13;;;3.92;;
33154;SDS011;19511;42.682;23.332;2022-08-19T14:07:44;6.90;;;3.50;;
33154;SDS011;19511;42.682;23.332;2022-08-19T14:12:36;7.82;;;3.92;;
33154;SDS011;19511;42.682;23.332;2022-08-19T14:15:03;9.18;;;3.33;;
33154;SDS011;19511;42.682;23.332;2022-08-19T14:17:30;7.80;;;3.50;;
33154;SDS011;19511;42.682;23.332;2022-08-19T14:19:56;5.43;;;3.67;;
33154;SDS011;19511;42.682;23.332;2022-08-19T14:22:23;8.10;;;3.63;;
33154;SDS011;19511;42.682;23.332;2022-08-19T14:24:48;5.30;;;3.10;;
33154;SDS011;19511;42.682;23.332;2022-08-19T14:27:15;6.20;;;3.92;;
33154;SDS011;19511;42.682;23.332;2022-08-19T14:29:40;6.95;;;3.33;;
33154;SDS011;19511;42.682;23.332;2022-08-19T14:32:06;12.25;;;5.45;;
33154;SDS011;19511;42.682;23.332;2022-08-19T14:34:31;4.45;;;3.63;;
33154;SDS011;19511;42.682;23.332;2022-08-19T14:36:58;6.75;;;3.97;;
33154;SDS011;19511;42.682;23.332;2022-08-19T14:39:24;5.15;;;3.53;;
33154;SDS011;19511;42.682;23.332;2022-08-19T14:41:49;8.55;;;4.60;;
33154;SDS011;19511;42.682;23.332;2022-08-19T14:44:15;6.68;;;3.75;;
33154;SDS011;19511;42.682;23.332;2022-08-19T14:46:41;6.00;;;3.70;;
33154;SDS011;19511;42.682;23.332;2022-08-19T14:49:06;5.10;;;3.47;;
33154;SDS011;19511;42.682;23.332;2022-08-19T14:51:32;5.68;;;3.67;;
33154;SDS011;19511;42.682;23.332;2022-08-19T14:53:58;15.05;;;3.72;;
33154;SDS011;19511;42.682;23.332;2022-08-19T14:56:25;6.07;;;3.85;;